Terminal Aerodrome Forecast
Issued by NWS Mt. Holly, NJ

Home | Current Version | Previous Version | Text Only | Print | Product List | Glossary On
Versions: 1 2 3 4 5 6 7 8 9 10 11 12 13 14 15 16 17 18 19 20 21 22 23 24 25 26 27 28 29 30 31 32 33 34 35 36 37 38 39
000
FTAK31 PANC 302328
TAFABE
TAF
PABE 302328Z 3100/3124 16014G22KT P6SM VCSH SCT030 BKN045
     FM310600 16010KT P6SM VCSH SCT045 BKN070
     FM310900 09008KT P6SM BKN090
     FM311200 08007KT P6SM SKC
     FM312100 06012G18KT P6SM SCT080 BKN200=

USA.gov is the U.S. government's official web portal to all federal, state and local government web resources and services.